Flight Track Log - Related Links

Times and Time Zones

All times are in EDT time to prevent confusion due to time zone crossing. See the FLG4222 flight status page for this flight to view local times or setup timezone preferences in your user account.

Time Position Orientation Groundspeed Altitude Reporting Facility
EDT Latitude Longitude Course Direction KTS MPH feet Rate Location/Type
Sun 12:03:51 PM 42.1522 -76.0353 289° West 204 235 5,800  Level New York Center
Sun 12:04:51 PM 42.1794 -76.1269 292° West 224 258 8,200 2,000 Climbing New York Center
Sun 12:05:51 PM 42.2086 -76.2189 293° West 247 284 9,800 1,600 Climbing New York Center
Sun 12:06:51 PM 42.2394 -76.3167 293° West 272 313 11,400 1,050 Climbing New York Center
Sun 12:07:51 PM 42.2756 -76.4344 293° West 307 353 11,900 252 Climbing New York Center
Sun 12:08:00 PM 42.2299 -76.7097 289° West  Level Estimated
Sun 12:08:50 PM 42.3172 -76.5644 293° West 348 400 11,900  Level New York Center
Sun 12:09:53 PM 42.3592 -76.7006 293° West 387 445 11,900 1,152 Level Cleveland Center
Sun 12:10:55 PM 42.3975 -76.8281 292° West 375 432 14,300 2,081 Climbing Cleveland Center
Sun 12:11:57 PM 42.4344 -76.9492 292° West 354 407 16,200 1,415 Climbing Cleveland Center
Sun 12:12:58 PM 42.4714 -77.0736 292° West 355 409 17,200 976 Climbing Cleveland Center
Sun 12:14:00 PM 42.5106 -77.2033 292° West 367 422 18,200 1,065 Climbing Cleveland Center
Sun 12:15:02 PM 42.5583 -77.3664 292° West 385 443 19,400 1,016 Climbing Cleveland Center
Sun 12:16:04 PM 42.5975 -77.4972 292° West 382 440 20,300 919 Climbing Cleveland Center
Sun 12:17:06 PM 42.6364 -77.6314 292° West 381 438 21,300 968 Climbing Cleveland Center
Sun 12:18:08 PM 42.6606 -77.7692 283° West 384 442 22,300 968 Climbing Cleveland Center
Sun 12:19:10 PM 42.6661 -77.9211 273° West 366 421 23,300 726 Climbing Cleveland Center
Sun 12:20:12 PM 42.6689 -78.0614 272° West 371 427 23,800 484 Climbing Cleveland Center
Sun 12:21:14 PM 42.6725 -78.2042 272° West 377 434 24,300 484 Climbing Cleveland Center
Sun 12:22:16 PM 42.6761 -78.3494 272° West 385 443 24,800 484 Climbing Cleveland Center
Sun 12:23:18 PM 42.6803 -78.4969 272° West 391 450 25,300 537 Climbing Cleveland Center
Sun 12:24:19 PM 42.6850 -78.6769 272° West 396 456 25,900 537 Climbing Cleveland Center
Sun 12:25:21 PM 42.6878 -78.8253 272° West 392 451 26,400 484 Climbing Cleveland Center
Sun 12:26:23 PM 42.6911 -78.9728 272° West 390 449 26,900 484 Climbing Cleveland Center
Sun 12:27:25 PM 42.6939 -79.1197 272° West 390 449 27,400 484 Climbing Cleveland Center
Sun 12:28:27 PM 42.6947 -79.2650 270° West 387 445 27,900 290 Climbing Cleveland Center
Sun 12:29:29 PM 42.6969 -79.4111 271° West 388 447 28,000 -532 Climbing Cleveland Center
Sun 12:30:31 PM 42.6994 -79.5936 271° West 403 464 26,800 -960 Descending Cleveland Center
Sun 12:31:34 PM 42.6994 -79.7572 270° West 432 497 26,000 -384 Descending Cleveland Center
Sun 12:32:36 PM 42.6903 -79.9164 266° West 425 489 26,000 -919 Level Cleveland Center
Sun 12:33:38 PM 42.6781 -80.0786 264° West 421 484 24,100 -968 Descending Cleveland Center
Sun 12:34:40 PM 42.6683 -80.2417 265° West 428 493 24,000 -48 Descending Cleveland Center
Sun 12:35:42 PM 42.6600 -80.4017 266° West 423 487 24,000  Level Cleveland Center
Sun 12:36:44 PM 42.6506 -80.5592 265° West 416 479 24,000  Level Cleveland Center
Sun 12:37:46 PM 42.6397 -80.7431 265° West 415 478 24,000  Level Cleveland Center
Sun 12:38:48 PM 42.6289 -80.8997 265° West 416 479 24,000  Level Cleveland Center
Sun 12:39:50 PM 42.6183 -81.0525 265° West 408 470 24,000  Level Cleveland Center
Sun 12:40:52 PM 42.6086 -81.2061 265° West 406 467 24,000  Level Cleveland Center
Sun 12:41:54 PM 42.5972 -81.3592 264° West 405 466 24,000  Level Cleveland Center
Sun 12:42:56 PM 42.5867 -81.5142 265° West 408 470 24,000  Level Cleveland Center
Sun 12:43:58 PM 42.5747 -81.6683 264° West 409 471 24,000 -919 Level Cleveland Center
Sun 12:45:00 PM 42.5636 -81.8222 264° West 412 474 22,100 -2,177 Descending Cleveland Center
Sun 12:46:02 PM 42.5508 -82.0000 264° West 396 456 19,500 -2,419 Descending Cleveland Center
Sun 12:47:04 PM 42.5386 -82.1492 264° West 398 458 17,100 -2,400 Descending Cleveland Center
Sun 12:47:12 PM 42.5372 -82.1797 266° West 396 456 16,700 -2,129 Descending Cleveland Center
Sun 12:48:06 PM 42.5275 -82.2922 263° West 389 448 14,900 -2,163 Descending Cleveland Center
Sun 12:48:38 PM 42.5236 -82.3817 267° West 376 433 13,600 -2,129 Descending Cleveland Center
Sun 12:49:08 PM 42.5167 -82.4333 260° West 381 438 12,700 -1,479 Descending Cleveland Center
Sun 12:49:51 PM 42.5058 -82.5464 263° West 359 413 11,800 -1,161 Descending Cleveland Center
Sun 12:50:10 PM 42.5008 -82.5664 251° West 366 421 11,500 -1,527 Descending Cleveland Center
Sun 12:50:46 PM 42.4714 -82.6464 244° Southwest 299 344 10,400 -1,429 Descending Cleveland Center
Sun 12:51:13 PM 42.4567 -82.6867 244° Southwest 306 352 10,000 -1,279 Descending Cleveland Center
Sun 12:51:47 PM 42.4397 -82.7383 246° West 257 296 9,100 -968 Descending Cleveland Center
Sun 12:52:15 PM 42.4256 -82.7756 243° Southwest 273 314 9,000 -982 Descending Cleveland Center
Sun 12:52:42 PM 42.4250 -82.8242 269° West 266 306 8,200 -1,645 Descending Cleveland Center
Sun 12:53:17 PM 42.4247 -82.8719 270° West 259 298 7,300 -1,180 Descending Cleveland Center
Sun 12:53:43 PM 42.4328 -82.9186 283° West 257 296 7,000 -194 Descending Cleveland Center
Sun 12:54:19 PM 42.4592 -82.9444 324° Northwest 257 296 7,100  Climbing Cleveland Center
Sun 12:54:38 PM 42.4842 -82.9622 332° Northwest 227 261 7,000 -97 Descending Cleveland Center
Sun 12:55:21 PM 42.5139 -82.9831 333° Northwest 229 264 7,000 100 Level Cleveland Center
Sun 12:55:38 PM 42.5286 -83.0106 306° West 182 209 7,100  Climbing Cleveland Center
Sun 12:56:23 PM 42.5408 -83.0447 296° West 207 238 7,000  Descending Cleveland Center
Sun 12:56:39 PM 42.5444 -83.0781 278° West 165 190 7,100  Climbing Cleveland Center
Sun 12:57:25 PM 42.5250 -83.1081 229° Southwest 164 189 7,000  Descending Cleveland Center
Sun 12:57:40 PM 42.5144 -83.1164 210° Southwest 156 180 7,100 -290 Climbing Cleveland Center
Sun 12:58:27 PM 42.4847 -83.1353 205° Southwest 160 184 6,700 -655 Descending Cleveland Center
Sun 12:58:35 PM 42.4769 -83.1422 213° Southwest 160 184 6,500 -871 Descending Cleveland Center
Sun 12:59:29 PM 42.4472 -83.1636 208° Southwest 158 182 5,800 -896 Descending Cleveland Center
Sun 12:59:42 PM 42.4367 -83.1736 215° Southwest 148 170 5,500 -774 Descending Cleveland Center
Sun 01:00:31 PM 42.4108 -83.1900 205° Southwest 151 174 5,000 -806 Descending Cleveland Center
Sun 01:00:49 PM 42.3947 -83.2044 214° Southwest 156 180 4,600 -871 Descending Cleveland Center
Sun 01:01:33 PM 42.3731 -83.2183 205° Southwest 153 176 4,100 -764 Descending Cleveland Center
Sun 01:01:44 PM 42.3614 -83.2281 212° Southwest 151 174 3,900 -774 Descending Cleveland Center
Sun 01:02:35 PM 42.3361 -83.2464 208° Southwest 152 175 3,300 -806 Descending Cleveland Center
Sun 01:02:51 PM 42.3214 -83.2592 213° Southwest 150 173 3,000 -968 Descending Cleveland Center
Sun 01:03:37 PM 42.2922 -83.2783 206° Southwest 150 173 2,300 -889 Descending Cleveland Center
Sun 01:03:45 PM 42.2878 -83.2856 230° Southwest 143 165 2,200 -677 Descending Cleveland Center
Sun 01:04:39 PM 42.2589 -83.3042 205° Southwest 142 163 1,600 -655 Descending Cleveland Center
Sun 01:04:40 PM 42.2569 -83.3067 224° Southwest 138 159 1,600 -387 Level Cleveland Center
Sun 01:05:41 PM 42.2292 -83.3253 206° Southwest 139 160 1,200 -393 Descending Cleveland Center

Login

Don't have an account? Register now (free) for customized features, flight alerts, and more!